sensor_id;sensor_type;location;lat;lon;timestamp;temperature;humidity
15288;DHT22;7745;48.708;9.026;2023-07-31T00:02:19;15.00;99.90
15288;DHT22;7745;48.708;9.026;2023-07-31T00:04:45;15.00;99.90
15288;DHT22;7745;48.708;9.026;2023-07-31T00:07:12;15.00;99.90
15288;DHT22;7745;48.708;9.026;2023-07-31T00:09:39;15.00;99.90
15288;DHT22;7745;48.708;9.026;2023-07-31T00:12:06;14.80;99.90
15288;DHT22;7745;48.708;9.026;2023-07-31T00:14:34;14.80;99.90
15288;DHT22;7745;48.708;9.026;2023-07-31T00:17:01;14.80;99.90
15288;DHT22;7745;48.708;9.026;2023-07-31T00:19:28;14.80;99.90
15288;DHT22;7745;48.708;9.026;2023-07-31T00:21:55;14.80;99.90
15288;DHT22;7745;48.708;9.026;2023-07-31T00:24:22;14.80;99.90
15288;DHT22;7745;48.708;9.026;2023-07-31T00:26:48;14.90;99.90
15288;DHT22;7745;48.708;9.026;2023-07-31T00:29:15;14.90;99.90
15288;DHT22;7745;48.708;9.026;2023-07-31T00:31:43;14.90;99.90
15288;DHT22;7745;48.708;9.026;2023-07-31T00:34:10;14.90;99.90
15288;DHT22;7745;48.708;9.026;2023-07-31T00:36:37;15.00;99.90
15288;DHT22;7745;48.708;9.026;2023-07-31T00:39:04;14.80;99.90
15288;DHT22;7745;48.708;9.026;2023-07-31T00:41:31;15.00;99.90
15288;DHT22;7745;48.708;9.026;2023-07-31T00:43:57;14.90;99.90
15288;DHT22;7745;48.708;9.026;2023-07-31T00:46:24;14.90;99.90
15288;DHT22;7745;48.708;9.026;2023-07-31T00:48:52;14.80;99.90
15288;DHT22;7745;48.708;9.026;2023-07-31T00:51:19;14.70;99.90
15288;DHT22;7745;48.708;9.026;2023-07-31T00:53:47;14.70;99.90
15288;DHT22;7745;48.708;9.026;2023-07-31T00:56:14;14.60;99.90
15288;DHT22;7745;48.708;9.026;2023-07-31T00:58:42;14.60;99.90
15288;DHT22;7745;48.708;9.026;2023-07-31T01:01:09;14.50;99.90
15288;DHT22;7745;48.708;9.026;2023-07-31T01:03:35;14.50;99.90
15288;DHT22;7745;48.708;9.026;2023-07-31T01:06:14;14.60;99.90
15288;DHT22;7745;48.708;9.026;2023-07-31T01:08:50;14.60;99.90
15288;DHT22;7745;48.708;9.026;2023-07-31T01:11:24;14.50;99.90
15288;DHT22;7745;48.708;9.026;2023-07-31T01:13:52;14.50;99.90
15288;DHT22;7745;48.708;9.026;2023-07-31T01:16:19;14.50;99.90
15288;DHT22;7745;48.708;9.026;2023-07-31T01:18:46;14.50;99.90
15288;DHT22;7745;48.708;9.026;2023-07-31T01:21:23;14.50;99.90
15288;DHT22;7745;48.708;9.026;2023-07-31T01:27:04;14.60;99.90
15288;DHT22;7745;48.708;9.026;2023-07-31T01:29:37;14.60;99.90
15288;DHT22;7745;48.708;9.026;2023-07-31T01:32:06;14.60;99.90
15288;DHT22;7745;48.708;9.026;2023-07-31T01:34:35;14.60;99.90
15288;DHT22;7745;48.708;9.026;2023-07-31T01:37:03;14.60;99.90
15288;DHT22;7745;48.708;9.026;2023-07-31T01:39:30;14.60;99.90
15288;DHT22;7745;48.708;9.026;2023-07-31T01:41:58;14.60;99.90
15288;DHT22;7745;48.708;9.026;2023-07-31T01:44:25;14.60;99.90
15288;DHT22;7745;48.708;9.026;2023-07-31T01:46:52;14.60;99.90
15288;DHT22;7745;48.708;9.026;2023-07-31T01:49:18;14.60;99.90
15288;DHT22;7745;48.708;9.026;2023-07-31T01:51:45;14.50;99.90
15288;DHT22;7745;48.708;9.026;2023-07-31T01:54:12;14.60;99.90
15288;DHT22;7745;48.708;9.026;2023-07-31T01:56:39;14.50;99.90
15288;DHT22;7745;48.708;9.026;2023-07-31T01:59:07;14.50;99.90
15288;DHT22;7745;48.708;9.026;2023-07-31T02:01:33;14.50;99.90
15288;DHT22;7745;48.708;9.026;2023-07-31T02:04:00;14.40;99.90
15288;DHT22;7745;48.708;9.026;2023-07-31T02:06:27;14.40;99.90
15288;DHT22;7745;48.708;9.026;2023-07-31T02:08:54;14.40;99.90
15288;DHT22;7745;48.708;9.026;2023-07-31T02:11:20;14.40;99.90
15288;DHT22;7745;48.708;9.026;2023-07-31T02:13:47;14.40;99.90
15288;DHT22;7745;48.708;9.026;2023-07-31T02:16:15;14.40;99.90
15288;DHT22;7745;48.708;9.026;2023-07-31T02:18:42;14.40;99.90
15288;DHT22;7745;48.708;9.026;2023-07-31T02:21:08;14.40;99.90
15288;DHT22;7745;48.708;9.026;2023-07-31T02:23:35;14.50;99.90
15288;DHT22;7745;48.708;9.026;2023-07-31T02:26:02;14.40;99.90
15288;DHT22;7745;48.708;9.026;2023-07-31T02:28:29;14.40;99.90
15288;DHT22;7745;48.708;9.026;2023-07-31T02:30:56;14.50;99.90
15288;DHT22;7745;48.708;9.026;2023-07-31T02:33:24;14.50;99.90
15288;DHT22;7745;48.708;9.026;2023-07-31T02:35:51;14.60;99.90
15288;DHT22;7745;48.708;9.026;2023-07-31T02:38:18;14.40;99.90
15288;DHT22;7745;48.708;9.026;2023-07-31T02:40:45;14.50;99.90
15288;DHT22;7745;48.708;9.026;2023-07-31T02:43:11;14.30;99.90
15288;DHT22;7745;48.708;9.026;2023-07-31T02:45:38;14.50;99.90
15288;DHT22;7745;48.708;9.026;2023-07-31T02:48:05;14.60;99.90
15288;DHT22;7745;48.708;9.026;2023-07-31T02:50:33;14.50;99.90
15288;DHT22;7745;48.708;9.026;2023-07-31T02:53:00;14.70;99.90
15288;DHT22;7745;48.708;9.026;2023-07-31T02:55:27;14.50;99.90
15288;DHT22;7745;48.708;9.026;2023-07-31T02:57:54;14.50;99.90
15288;DHT22;7745;48.708;9.026;2023-07-31T03:00:21;14.50;99.90
15288;DHT22;7745;48.708;9.026;2023-07-31T03:02:47;14.60;99.90
15288;DHT22;7745;48.708;9.026;2023-07-31T03:05:14;14.50;99.90
15288;DHT22;7745;48.708;9.026;2023-07-31T03:07:42;14.60;99.90
15288;DHT22;7745;48.708;9.026;2023-07-31T03:10:09;14.60;99.90
15288;DHT22;7745;48.708;9.026;2023-07-31T03:12:36;14.60;99.90
15288;DHT22;7745;48.708;9.026;2023-07-31T03:15:03;14.60;99.90
15288;DHT22;7745;48.708;9.026;2023-07-31T03:17:30;14.60;99.90
15288;DHT22;7745;48.708;9.026;2023-07-31T03:19:57;14.60;99.90
15288;DHT22;7745;48.708;9.026;2023-07-31T03:22:24;14.60;99.90
15288;DHT22;7745;48.708;9.026;2023-07-31T03:24:52;14.70;99.90
15288;DHT22;7745;48.708;9.026;2023-07-31T03:27:19;14.60;99.90
15288;DHT22;7745;48.708;9.026;2023-07-31T03:29:45;14.70;99.90
15288;DHT22;7745;48.708;9.026;2023-07-31T03:32:12;14.70;99.90
15288;DHT22;7745;48.708;9.026;2023-07-31T03:34:39;14.70;99.90
15288;DHT22;7745;48.708;9.026;2023-07-31T03:37:06;14.70;99.90
15288;DHT22;7745;48.708;9.026;2023-07-31T03:39:34;14.70;99.90
15288;DHT22;7745;48.708;9.026;2023-07-31T03:42:03;14.80;99.90
15288;DHT22;7745;48.708;9.026;2023-07-31T03:44:30;14.60;99.90
15288;DHT22;7745;48.708;9.026;2023-07-31T03:46:56;14.60;99.90
15288;DHT22;7745;48.708;9.026;2023-07-31T03:49:23;14.70;99.90
15288;DHT22;7745;48.708;9.026;2023-07-31T03:51:50;14.70;99.90
15288;DHT22;7745;48.708;9.026;2023-07-31T03:54:17;14.70;99.90
15288;DHT22;7745;48.708;9.026;2023-07-31T03:56:43;14.80;99.90
15288;DHT22;7745;48.708;9.026;2023-07-31T03:59:11;14.80;99.90
15288;DHT22;7745;48.708;9.026;2023-07-31T04:01:38;14.80;99.90
15288;DHT22;7745;48.708;9.026;2023-07-31T04:04:05;14.80;99.90
15288;DHT22;7745;48.708;9.026;2023-07-31T04:06:32;14.80;99.90
15288;DHT22;7745;48.708;9.026;2023-07-31T04:08:58;14.80;99.90
15288;DHT22;7745;48.708;9.026;2023-07-31T04:11:25;14.80;99.90
15288;DHT22;7745;48.708;9.026;2023-07-31T04:13:52;14.80;99.90
15288;DHT22;7745;48.708;9.026;2023-07-31T04:16:20;14.80;99.90
15288;DHT22;7745;48.708;9.026;2023-07-31T04:18:47;14.90;99.90
15288;DHT22;7745;48.708;9.026;2023-07-31T04:21:14;14.90;99.90
15288;DHT22;7745;48.708;9.026;2023-07-31T04:23:40;14.90;99.90
15288;DHT22;7745;48.708;9.026;2023-07-31T04:26:07;14.90;99.90
15288;DHT22;7745;48.708;9.026;2023-07-31T04:28:35;15.10;99.90
15288;DHT22;7745;48.708;9.026;2023-07-31T04:31:02;15.00;99.90
15288;DHT22;7745;48.708;9.026;2023-07-31T04:33:30;15.00;99.90
15288;DHT22;7745;48.708;9.026;2023-07-31T04:35:59;15.00;99.90
15288;DHT22;7745;48.708;9.026;2023-07-31T04:38:26;15.10;99.90
15288;DHT22;7745;48.708;9.026;2023-07-31T04:40:52;15.10;99.90
15288;DHT22;7745;48.708;9.026;2023-07-31T04:43:19;15.20;99.90
15288;DHT22;7745;48.708;9.026;2023-07-31T04:45:46;15.20;99.90
15288;DHT22;7745;48.708;9.026;2023-07-31T04:48:14;15.20;99.90
15288;DHT22;7745;48.708;9.026;2023-07-31T04:50:42;15.20;99.90
15288;DHT22;7745;48.708;9.026;2023-07-31T04:53:09;15.30;99.90
15288;DHT22;7745;48.708;9.026;2023-07-31T04:55:35;15.30;99.90
15288;DHT22;7745;48.708;9.026;2023-07-31T04:58:02;15.50;99.90
15288;DHT22;7745;48.708;9.026;2023-07-31T05:00:29;15.40;99.90
15288;DHT22;7745;48.708;9.026;2023-07-31T05:02:56;15.40;99.90
15288;DHT22;7745;48.708;9.026;2023-07-31T05:05:22;15.40;99.90
15288;DHT22;7745;48.708;9.026;2023-07-31T05:07:50;15.50;99.90
15288;DHT22;7745;48.708;9.026;2023-07-31T05:10:17;15.50;99.90
15288;DHT22;7745;48.708;9.026;2023-07-31T05:12:44;15.50;99.90
15288;DHT22;7745;48.708;9.026;2023-07-31T05:15:11;15.60;99.90
15288;DHT22;7745;48.708;9.026;2023-07-31T05:17:38;15.60;99.90
15288;DHT22;7745;48.708;9.026;2023-07-31T05:20:06;15.70;99.90
15288;DHT22;7745;48.708;9.026;2023-07-31T05:22:33;15.70;99.90
15288;DHT22;7745;48.708;9.026;2023-07-31T05:25:01;15.70;99.90
15288;DHT22;7745;48.708;9.026;2023-07-31T05:27:31;15.80;99.90
15288;DHT22;7745;48.708;9.026;2023-07-31T05:29:57;16.00;99.90
15288;DHT22;7745;48.708;9.026;2023-07-31T05:32:24;15.90;99.90
15288;DHT22;7745;48.708;9.026;2023-07-31T05:34:51;16.00;99.90
15288;DHT22;7745;48.708;9.026;2023-07-31T05:37:18;16.00;99.90
15288;DHT22;7745;48.708;9.026;2023-07-31T05:39:45;16.10;99.90
15288;DHT22;7745;48.708;9.026;2023-07-31T05:42:13;16.20;99.90
15288;DHT22;7745;48.708;9.026;2023-07-31T05:44:40;16.30;99.90
15288;DHT22;7745;48.708;9.026;2023-07-31T05:47:07;16.40;99.90
15288;DHT22;7745;48.708;9.026;2023-07-31T05:49:34;16.50;99.90
15288;DHT22;7745;48.708;9.026;2023-07-31T05:52:01;16.60;99.90
15288;DHT22;7745;48.708;9.026;2023-07-31T05:54:27;16.60;99.90
15288;DHT22;7745;48.708;9.026;2023-07-31T05:56:54;16.70;99.90
15288;DHT22;7745;48.708;9.026;2023-07-31T05:59:22;16.70;99.90
15288;DHT22;7745;48.708;9.026;2023-07-31T06:01:49;16.80;99.90
15288;DHT22;7745;48.708;9.026;2023-07-31T06:04:16;16.90;99.90
15288;DHT22;7745;48.708;9.026;2023-07-31T06:06:43;16.90;99.90
15288;DHT22;7745;48.708;9.026;2023-07-31T06:09:10;17.10;99.90
15288;DHT22;7745;48.708;9.026;2023-07-31T06:11:37;16.90;99.90
15288;DHT22;7745;48.708;9.026;2023-07-31T06:14:04;16.90;99.90
15288;DHT22;7745;48.708;9.026;2023-07-31T06:16:32;17.00;99.90
15288;DHT22;7745;48.708;9.026;2023-07-31T06:18:58;17.10;99.90
15288;DHT22;7745;48.708;9.026;2023-07-31T06:21:25;17.20;99.90
15288;DHT22;7745;48.708;9.026;2023-07-31T06:23:52;17.40;99.90
15288;DHT22;7745;48.708;9.026;2023-07-31T06:26:19;17.40;99.90
15288;DHT22;7745;48.708;9.026;2023-07-31T06:28:46;17.40;99.90
15288;DHT22;7745;48.708;9.026;2023-07-31T06:31:13;17.50;99.90
15288;DHT22;7745;48.708;9.026;2023-07-31T06:33:41;17.50;99.90
15288;DHT22;7745;48.708;9.026;2023-07-31T06:36:08;17.60;99.90
15288;DHT22;7745;48.708;9.026;2023-07-31T06:38:37;17.70;99.90
15288;DHT22;7745;48.708;9.026;2023-07-31T06:41:04;18.00;99.90
15288;DHT22;7745;48.708;9.026;2023-07-31T06:43:31;18.20;99.90
15288;DHT22;7745;48.708;9.026;2023-07-31T06:45:59;18.30;99.90
15288;DHT22;7745;48.708;9.026;2023-07-31T06:48:26;18.30;99.90
15288;DHT22;7745;48.708;9.026;2023-07-31T06:50:54;18.60;99.90
15288;DHT22;7745;48.708;9.026;2023-07-31T06:53:21;18.50;99.90
15288;DHT22;7745;48.708;9.026;2023-07-31T06:55:48;18.70;99.90
15288;DHT22;7745;48.708;9.026;2023-07-31T07:00:53;18.60;99.90
15288;DHT22;7745;48.708;9.026;2023-07-31T07:03:25;18.50;99.90
15288;DHT22;7745;48.708;9.026;2023-07-31T07:05:54;18.60;99.90
15288;DHT22;7745;48.708;9.026;2023-07-31T07:08:20;18.90;99.90
15288;DHT22;7745;48.708;9.026;2023-07-31T07:10:47;18.80;99.90
15288;DHT22;7745;48.708;9.026;2023-07-31T07:13:14;18.80;99.90
15288;DHT22;7745;48.708;9.026;2023-07-31T07:15:41;19.00;99.90
15288;DHT22;7745;48.708;9.026;2023-07-31T07:18:08;19.10;99.90
15288;DHT22;7745;48.708;9.026;2023-07-31T07:20:36;19.40;99.90
15288;DHT22;7745;48.708;9.026;2023-07-31T07:23:04;19.40;99.90
15288;DHT22;7745;48.708;9.026;2023-07-31T07:25:31;19.40;99.90
15288;DHT22;7745;48.708;9.026;2023-07-31T07:27:57;19.40;99.90
15288;DHT22;7745;48.708;9.026;2023-07-31T07:30:25;19.40;99.90
15288;DHT22;7745;48.708;9.026;2023-07-31T07:32:52;19.40;99.90
15288;DHT22;7745;48.708;9.026;2023-07-31T07:35:19;19.30;99.90
15288;DHT22;7745;48.708;9.026;2023-07-31T07:37:48;19.10;99.90
15288;DHT22;7745;48.708;9.026;2023-07-31T07:40:17;19.30;99.90
15288;DHT22;7745;48.708;9.026;2023-07-31T07:42:44;19.50;99.90
15288;DHT22;7745;48.708;9.026;2023-07-31T07:45:12;19.70;99.90
15288;DHT22;7745;48.708;9.026;2023-07-31T07:47:40;19.70;99.90
15288;DHT22;7745;48.708;9.026;2023-07-31T07:50:08;19.80;99.90
15288;DHT22;7745;48.708;9.026;2023-07-31T07:52:35;19.80;99.90
15288;DHT22;7745;48.708;9.026;2023-07-31T07:55:01;19.90;99.90
15288;DHT22;7745;48.708;9.026;2023-07-31T07:57:30;20.10;99.90
15288;DHT22;7745;48.708;9.026;2023-07-31T07:59:57;20.40;99.90
15288;DHT22;7745;48.708;9.026;2023-07-31T08:02:24;20.30;99.90
15288;DHT22;7745;48.708;9.026;2023-07-31T08:04:51;20.60;99.90
15288;DHT22;7745;48.708;9.026;2023-07-31T08:07:17;20.40;99.90
15288;DHT22;7745;48.708;9.026;2023-07-31T08:09:44;20.40;99.90
15288;DHT22;7745;48.708;9.026;2023-07-31T08:12:18;20.70;99.90
15288;DHT22;7745;48.708;9.026;2023-07-31T08:14:49;20.60;99.90
15288;DHT22;7745;48.708;9.026;2023-07-31T08:17:25;20.40;99.90
15288;DHT22;7745;48.708;9.026;2023-07-31T08:19:52;20.40;99.90
15288;DHT22;7745;48.708;9.026;2023-07-31T08:22:19;20.40;99.90
15288;DHT22;7745;48.708;9.026;2023-07-31T08:24:46;20.60;99.90
15288;DHT22;7745;48.708;9.026;2023-07-31T08:27:12;20.80;99.90
15288;DHT22;7745;48.708;9.026;2023-07-31T08:29:43;21.10;99.90
15288;DHT22;7745;48.708;9.026;2023-07-31T08:32:12;21.30;99.90
15288;DHT22;7745;48.708;9.026;2023-07-31T08:34:39;21.50;99.90
15288;DHT22;7745;48.708;9.026;2023-07-31T08:37:07;21.60;99.90
15288;DHT22;7745;48.708;9.026;2023-07-31T08:39:51;21.60;99.90
15288;DHT22;7745;48.708;9.026;2023-07-31T08:42:24;21.50;99.90
15288;DHT22;7745;48.708;9.026;2023-07-31T08:44:52;21.40;99.90
15288;DHT22;7745;48.708;9.026;2023-07-31T08:47:22;21.30;99.90
15288;DHT22;7745;48.708;9.026;2023-07-31T08:49:52;21.10;99.90
15288;DHT22;7745;48.708;9.026;2023-07-31T08:52:19;21.20;99.90
15288;DHT22;7745;48.708;9.026;2023-07-31T08:54:46;20.90;99.90
15288;DHT22;7745;48.708;9.026;2023-07-31T08:57:14;20.80;99.90
15288;DHT22;7745;48.708;9.026;2023-07-31T08:59:41;20.80;99.90
15288;DHT22;7745;48.708;9.026;2023-07-31T09:02:11;20.70;99.90
15288;DHT22;7745;48.708;9.026;2023-07-31T09:04:41;20.60;99.90
15288;DHT22;7745;48.708;9.026;2023-07-31T09:07:08;20.70;99.90
15288;DHT22;7745;48.708;9.026;2023-07-31T09:09:38;20.60;99.90
15288;DHT22;7745;48.708;9.026;2023-07-31T09:12:07;20.70;99.90
15288;DHT22;7745;48.708;9.026;2023-07-31T09:14:33;20.70;99.90
15288;DHT22;7745;48.708;9.026;2023-07-31T09:17:01;20.80;99.90
15288;DHT22;7745;48.708;9.026;2023-07-31T09:19:33;20.90;99.90
15288;DHT22;7745;48.708;9.026;2023-07-31T09:22:04;21.10;99.90
15288;DHT22;7745;48.708;9.026;2023-07-31T09:24:32;21.20;99.90
15288;DHT22;7745;48.708;9.026;2023-07-31T09:27:00;21.30;99.90
15288;DHT22;7745;48.708;9.026;2023-07-31T09:32:29;21.40;99.90
15288;DHT22;7745;48.708;9.026;2023-07-31T09:35:00;21.30;99.90
15288;DHT22;7745;48.708;9.026;2023-07-31T09:37:30;21.20;99.90
15288;DHT22;7745;48.708;9.026;2023-07-31T09:39:57;21.20;99.90
15288;DHT22;7745;48.708;9.026;2023-07-31T09:42:25;21.10;99.90
15288;DHT22;7745;48.708;9.026;2023-07-31T09:44:54;21.30;99.90
15288;DHT22;7745;48.708;9.026;2023-07-31T09:47:21;21.50;99.90
15288;DHT22;7745;48.708;9.026;2023-07-31T09:49:50;21.70;99.90
15288;DHT22;7745;48.708;9.026;2023-07-31T09:52:17;21.90;99.90
15288;DHT22;7745;48.708;9.026;2023-07-31T09:54:45;22.00;99.90
15288;DHT22;7745;48.708;9.026;2023-07-31T09:57:12;21.90;99.90
15288;DHT22;7745;48.708;9.026;2023-07-31T09:59:42;21.90;99.90
15288;DHT22;7745;48.708;9.026;2023-07-31T10:02:21;21.90;99.90
15288;DHT22;7745;48.708;9.026;2023-07-31T10:04:50;22.00;99.90
15288;DHT22;7745;48.708;9.026;2023-07-31T10:07:18;22.20;99.90
15288;DHT22;7745;48.708;9.026;2023-07-31T10:09:47;22.20;99.90
15288;DHT22;7745;48.708;9.026;2023-07-31T10:12:19;22.30;99.90
15288;DHT22;7745;48.708;9.026;2023-07-31T10:14:49;22.30;99.90
15288;DHT22;7745;48.708;9.026;2023-07-31T10:17:17;22.30;99.90
15288;DHT22;7745;48.708;9.026;2023-07-31T10:19:51;22.30;99.90
15288;DHT22;7745;48.708;9.026;2023-07-31T10:22:21;22.50;99.90
15288;DHT22;7745;48.708;9.026;2023-07-31T10:24:52;22.50;99.90
15288;DHT22;7745;48.708;9.026;2023-07-31T10:27:23;22.50;99.90
15288;DHT22;7745;48.708;9.026;2023-07-31T10:29:52;22.50;99.90
15288;DHT22;7745;48.708;9.026;2023-07-31T10:32:20;22.60;99.90
15288;DHT22;7745;48.708;9.026;2023-07-31T10:34:50;22.60;99.90
15288;DHT22;7745;48.708;9.026;2023-07-31T10:37:25;22.60;99.90
15288;DHT22;7745;48.708;9.026;2023-07-31T10:40:03;22.70;99.90
15288;DHT22;7745;48.708;9.026;2023-07-31T10:42:33;22.60;99.90
15288;DHT22;7745;48.708;9.026;2023-07-31T10:45:08;22.50;99.90
15288;DHT22;7745;48.708;9.026;2023-07-31T10:47:38;22.50;99.90
15288;DHT22;7745;48.708;9.026;2023-07-31T10:50:21;22.60;99.90
15288;DHT22;7745;48.708;9.026;2023-07-31T10:53:00;22.60;99.90
15288;DHT22;7745;48.708;9.026;2023-07-31T10:58:34;23.30;99.90
15288;DHT22;7745;48.708;9.026;2023-07-31T11:01:18;23.30;99.90
15288;DHT22;7745;48.708;9.026;2023-07-31T11:03:56;23.30;99.90
15288;DHT22;7745;48.708;9.026;2023-07-31T11:06:30;23.20;99.90
15288;DHT22;7745;48.708;9.026;2023-07-31T11:09:02;23.30;99.90
15288;DHT22;7745;48.708;9.026;2023-07-31T11:11:33;23.30;99.90
15288;DHT22;7745;48.708;9.026;2023-07-31T11:17:44;23.20;99.90
15288;DHT22;7745;48.708;9.026;2023-07-31T11:20:21;23.10;99.90
15288;DHT22;7745;48.708;9.026;2023-07-31T11:23:11;23.00;99.90
15288;DHT22;7745;48.708;9.026;2023-07-31T11:25:49;22.90;99.90
15288;DHT22;7745;48.708;9.026;2023-07-31T11:56:50;22.20;99.90
15288;DHT22;7745;48.708;9.026;2023-07-31T12:05:27;22.30;99.90
15288;DHT22;7745;48.708;9.026;2023-07-31T12:08:12;22.50;99.90
15288;DHT22;7745;48.708;9.026;2023-07-31T12:10:42;22.60;99.90
15288;DHT22;7745;48.708;9.026;2023-07-31T12:13:30;22.50;99.90
15288;DHT22;7745;48.708;9.026;2023-07-31T12:16:25;22.50;99.90
15288;DHT22;7745;48.708;9.026;2023-07-31T12:19:06;22.40;99.90
15288;DHT22;7745;48.708;9.026;2023-07-31T12:21:51;22.10;99.90
15288;DHT22;7745;48.708;9.026;2023-07-31T12:24:30;22.00;99.90
15288;DHT22;7745;48.708;9.026;2023-07-31T12:27:32;21.90;99.90
15288;DHT22;7745;48.708;9.026;2023-07-31T12:30:28;21.80;99.90
15288;DHT22;7745;48.708;9.026;2023-07-31T12:33:44;21.80;99.90
15288;DHT22;7745;48.708;9.026;2023-07-31T12:36:32;21.80;99.90
15288;DHT22;7745;48.708;9.026;2023-07-31T12:39:32;21.80;99.90
15288;DHT22;7745;48.708;9.026;2023-07-31T12:43:00;21.70;99.90
15288;DHT22;7745;48.708;9.026;2023-07-31T12:45:38;21.90;99.90
15288;DHT22;7745;48.708;9.026;2023-07-31T12:48:18;21.90;99.90
15288;DHT22;7745;48.708;9.026;2023-07-31T12:51:02;22.10;99.90
15288;DHT22;7745;48.708;9.026;2023-07-31T12:54:08;22.40;99.90
15288;DHT22;7745;48.708;9.026;2023-07-31T13:00:26;22.90;99.90
15288;DHT22;7745;48.708;9.026;2023-07-31T13:05:50;23.40;99.90
15288;DHT22;7745;48.708;9.026;2023-07-31T13:08:32;23.70;99.90
15288;DHT22;7745;48.708;9.026;2023-07-31T13:11:11;23.90;99.90
15288;DHT22;7745;48.708;9.026;2023-07-31T13:14:07;23.80;99.90
15288;DHT22;7745;48.708;9.026;2023-07-31T13:16:41;23.90;99.90
15288;DHT22;7745;48.708;9.026;2023-07-31T13:19:40;23.80;99.90
15288;DHT22;7745;48.708;9.026;2023-07-31T13:22:40;23.80;99.90
15288;DHT22;7745;48.708;9.026;2023-07-31T13:25:24;23.80;99.90
15288;DHT22;7745;48.708;9.026;2023-07-31T13:28:05;23.80;99.90
15288;DHT22;7745;48.708;9.026;2023-07-31T13:31:04;23.80;99.90
15288;DHT22;7745;48.708;9.026;2023-07-31T13:37:07;23.80;99.90
15288;DHT22;7745;48.708;9.026;2023-07-31T13:39:41;23.80;99.90
15288;DHT22;7745;48.708;9.026;2023-07-31T13:42:19;23.80;99.90
15288;DHT22;7745;48.708;9.026;2023-07-31T13:45:05;23.50;99.90
15288;DHT22;7745;48.708;9.026;2023-07-31T13:51:10;23.50;99.90
15288;DHT22;7745;48.708;9.026;2023-07-31T13:57:23;23.40;99.90
15288;DHT22;7745;48.708;9.026;2023-07-31T14:07:02;23.30;99.90
15288;DHT22;7745;48.708;9.026;2023-07-31T14:09:33;23.30;99.90
15288;DHT22;7745;48.708;9.026;2023-07-31T14:12:06;23.20;99.90
15288;DHT22;7745;48.708;9.026;2023-07-31T14:15:19;23.10;99.90
15288;DHT22;7745;48.708;9.026;2023-07-31T14:21:12;23.10;99.90
15288;DHT22;7745;48.708;9.026;2023-07-31T14:27:17;23.00;99.90
15288;DHT22;7745;48.708;9.026;2023-07-31T14:31:48;23.00;99.90
15288;DHT22;7745;48.708;9.026;2023-07-31T14:34:09;23.10;99.90
15288;DHT22;7745;48.708;9.026;2023-07-31T14:36:36;23.10;99.90
15288;DHT22;7745;48.708;9.026;2023-07-31T14:45:48;23.10;99.90
15288;DHT22;7745;48.708;9.026;2023-07-31T14:48:56;23.10;99.90
15288;DHT22;7745;48.708;9.026;2023-07-31T14:55:04;22.90;99.90
15288;DHT22;7745;48.708;9.026;2023-07-31T14:57:51;22.90;99.90
15288;DHT22;7745;48.708;9.026;2023-07-31T15:01:20;23.00;99.90
15288;DHT22;7745;48.708;9.026;2023-07-31T15:04:41;22.80;99.90
15288;DHT22;7745;48.708;9.026;2023-07-31T15:07:30;22.70;99.90
15288;DHT22;7745;48.708;9.026;2023-07-31T15:13:57;22.60;99.90
15288;DHT22;7745;48.708;9.026;2023-07-31T15:16:34;22.50;99.90
15288;DHT22;7745;48.708;9.026;2023-07-31T15:19:05;22.60;99.90
15288;DHT22;7745;48.708;9.026;2023-07-31T15:21:41;22.60;99.90
15288;DHT22;7745;48.708;9.026;2023-07-31T15:24:24;22.70;99.90
15288;DHT22;7745;48.708;9.026;2023-07-31T15:27:11;22.80;99.90
15288;DHT22;7745;48.708;9.026;2023-07-31T15:30:06;22.90;99.90
15288;DHT22;7745;48.708;9.026;2023-07-31T15:32:54;22.90;99.90
15288;DHT22;7745;48.708;9.026;2023-07-31T15:35:37;23.00;99.90
15288;DHT22;7745;48.708;9.026;2023-07-31T15:38:04;23.10;99.90
15288;DHT22;7745;48.708;9.026;2023-07-31T15:40:34;23.20;99.90
15288;DHT22;7745;48.708;9.026;2023-07-31T15:43:06;23.20;99.90
15288;DHT22;7745;48.708;9.026;2023-07-31T15:45:40;23.30;99.90
15288;DHT22;7745;48.708;9.026;2023-07-31T15:48:21;23.30;99.90
15288;DHT22;7745;48.708;9.026;2023-07-31T15:51:00;23.20;99.90
15288;DHT22;7745;48.708;9.026;2023-07-31T15:53:57;23.30;99.90
15288;DHT22;7745;48.708;9.026;2023-07-31T15:56:45;23.30;99.90
15288;DHT22;7745;48.708;9.026;2023-07-31T16:02:29;23.40;99.90
15288;DHT22;7745;48.708;9.026;2023-07-31T16:05:04;23.40;99.90
15288;DHT22;7745;48.708;9.026;2023-07-31T16:07:34;23.40;99.90
15288;DHT22;7745;48.708;9.026;2023-07-31T16:10:08;23.40;99.90
15288;DHT22;7745;48.708;9.026;2023-07-31T16:12:42;23.30;99.90
15288;DHT22;7745;48.708;9.026;2023-07-31T16:15:15;23.30;99.90
15288;DHT22;7745;48.708;9.026;2023-07-31T16:17:58;23.30;99.90
15288;DHT22;7745;48.708;9.026;2023-07-31T16:20:29;23.20;99.90
15288;DHT22;7745;48.708;9.026;2023-07-31T16:22:56;23.10;99.90
15288;DHT22;7745;48.708;9.026;2023-07-31T16:25:36;23.10;99.90
15288;DHT22;7745;48.708;9.026;2023-07-31T16:28:12;23.00;99.90
15288;DHT22;7745;48.708;9.026;2023-07-31T16:30:53;22.90;99.90
15288;DHT22;7745;48.708;9.026;2023-07-31T16:33:22;23.00;99.90
15288;DHT22;7745;48.708;9.026;2023-07-31T16:35:48;23.00;99.90
15288;DHT22;7745;48.708;9.026;2023-07-31T16:38:15;22.90;99.90
15288;DHT22;7745;48.708;9.026;2023-07-31T16:40:42;22.80;99.90
15288;DHT22;7745;48.708;9.026;2023-07-31T16:43:09;22.70;99.90
15288;DHT22;7745;48.708;9.026;2023-07-31T16:45:36;22.70;99.90
15288;DHT22;7745;48.708;9.026;2023-07-31T16:48:03;22.60;99.90
15288;DHT22;7745;48.708;9.026;2023-07-31T16:50:32;22.40;99.90
15288;DHT22;7745;48.708;9.026;2023-07-31T16:52:58;22.40;99.90
15288;DHT22;7745;48.708;9.026;2023-07-31T16:55:25;22.20;99.90
15288;DHT22;7745;48.708;9.026;2023-07-31T16:57:54;22.20;99.90
15288;DHT22;7745;48.708;9.026;2023-07-31T17:00:22;22.10;99.90
15288;DHT22;7745;48.708;9.026;2023-07-31T17:02:48;22.00;99.90
15288;DHT22;7745;48.708;9.026;2023-07-31T17:05:15;21.90;99.90
15288;DHT22;7745;48.708;9.026;2023-07-31T17:07:44;21.90;99.90
15288;DHT22;7745;48.708;9.026;2023-07-31T17:10:11;21.80;99.90
15288;DHT22;7745;48.708;9.026;2023-07-31T17:12:37;21.80;99.90
15288;DHT22;7745;48.708;9.026;2023-07-31T17:15:17;21.80;99.90
15288;DHT22;7745;48.708;9.026;2023-07-31T17:17:44;21.90;99.90
15288;DHT22;7745;48.708;9.026;2023-07-31T17:20:11;21.70;99.90
15288;DHT22;7745;48.708;9.026;2023-07-31T17:22:39;21.70;99.90
15288;DHT22;7745;48.708;9.026;2023-07-31T17:25:11;21.70;99.90
15288;DHT22;7745;48.708;9.026;2023-07-31T17:27:38;21.70;99.90
15288;DHT22;7745;48.708;9.026;2023-07-31T17:33:37;21.70;99.90
15288;DHT22;7745;48.708;9.026;2023-07-31T18:21:19;21.40;99.90
15288;DHT22;7745;48.708;9.026;2023-07-31T18:24:17;21.30;99.90
15288;DHT22;7745;48.708;9.026;2023-07-31T18:30:38;21.20;99.90
15288;DHT22;7745;48.708;9.026;2023-07-31T18:36:26;21.20;99.90
15288;DHT22;7745;48.708;9.026;2023-07-31T18:38:53;21.20;99.90
15288;DHT22;7745;48.708;9.026;2023-07-31T18:41:20;21.10;99.90
15288;DHT22;7745;48.708;9.026;2023-07-31T18:43:54;21.00;99.90
15288;DHT22;7745;48.708;9.026;2023-07-31T18:46:26;20.80;99.90
15288;DHT22;7745;48.708;9.026;2023-07-31T18:48:53;20.60;99.90